createdAt,value
2022-11-30T00:01:20.471Z,29.23
2022-11-30T00:03:41.645Z,28.03
2022-11-30T00:06:04.764Z,27.80
2022-11-30T00:08:29.226Z,25.43
2022-11-30T00:10:50.113Z,27.13
2022-11-30T00:13:11.339Z,27.30
2022-11-30T00:15:34.146Z,28.37
2022-11-30T00:17:57.038Z,28.30
2022-11-30T00:20:18.494Z,26.33
2022-11-30T00:22:39.884Z,25.63
2022-11-30T00:25:03.188Z,28.87
2022-11-30T00:27:24.189Z,29.00
2022-11-30T00:29:45.702Z,30.17
2022-11-30T00:32:08.406Z,25.80
2022-11-30T00:34:29.782Z,28.23
2022-11-30T00:36:50.851Z,26.80
2022-11-30T00:39:12.255Z,26.53
2022-11-30T00:41:33.418Z,26.93
2022-11-30T00:43:54.603Z,26.40
2022-11-30T00:46:15.993Z,27.63
2022-11-30T00:48:38.902Z,28.53
2022-11-30T00:50:59.849Z,25.13
2022-11-30T00:53:21.659Z,23.87
2022-11-30T00:55:43.936Z,24.27
2022-11-30T00:58:07.059Z,24.73
2022-11-30T01:00:28.617Z,25.33
2022-11-30T01:02:49.842Z,24.60
2022-11-30T01:05:12.543Z,26.50
2022-11-30T01:07:33.535Z,24.87
2022-11-30T01:09:54.641Z,22.47
2022-11-30T01:12:15.839Z,25.37
2022-11-30T01:14:36.981Z,24.10
2022-11-30T01:16:58.118Z,24.97
2022-11-30T01:19:19.385Z,23.93
2022-11-30T01:21:41.990Z,23.63
2022-11-30T01:24:03.169Z,23.97
2022-11-30T01:26:24.730Z,24.73
2022-11-30T01:28:46.459Z,28.00
2022-11-30T01:31:08.550Z,21.20
2022-11-30T01:33:29.744Z,19.90
2022-11-30T01:35:59.015Z,20.30
2022-11-30T01:38:21.205Z,23.17
2022-11-30T01:40:50.098Z,23.30
2022-11-30T01:43:11.569Z,22.17
2022-11-30T01:45:33.060Z,22.60
2022-11-30T01:47:55.624Z,25.97
2022-11-30T01:50:18.293Z,21.97
2022-11-30T01:52:40.888Z,22.10
2022-11-30T01:55:08.821Z,20.90
2022-11-30T01:57:32.578Z,23.37
2022-11-30T01:59:55.867Z,21.80
2022-11-30T02:02:17.539Z,23.67
2022-11-30T02:04:39.152Z,21.17
2022-11-30T02:07:00.870Z,22.37
2022-11-30T02:09:23.063Z,23.67
2022-11-30T02:11:45.893Z,22.93
2022-11-30T02:14:12.130Z,21.00
2022-11-30T02:16:37.298Z,22.10
2022-11-30T02:19:01.943Z,20.10
2022-11-30T02:21:25.895Z,19.93
2022-11-30T02:24:04.939Z,20.50
2022-11-30T02:26:36.461Z,19.30
2022-11-30T02:29:14.034Z,18.70
2022-11-30T02:31:39.673Z,17.27
2022-11-30T02:34:01.820Z,16.33
2022-11-30T02:36:23.969Z,17.13
2022-11-30T02:38:45.177Z,17.50
2022-11-30T02:41:06.644Z,17.43
2022-11-30T02:43:28.959Z,18.53
2022-11-30T02:45:54.771Z,17.57
2022-11-30T02:48:18.695Z,16.93
2022-11-30T02:50:41.442Z,16.87
2022-11-30T02:53:02.982Z,18.10
2022-11-30T02:55:24.208Z,16.27
2022-11-30T02:57:45.103Z,18.07
2022-11-30T03:00:07.952Z,17.87
2022-11-30T03:02:30.302Z,19.53
2022-11-30T03:04:51.522Z,18.23
2022-11-30T03:07:12.896Z,17.53
2022-11-30T03:09:34.159Z,18.27
2022-11-30T03:11:55.606Z,17.17
2022-11-30T03:14:16.981Z,17.33
2022-11-30T03:16:38.569Z,17.03
2022-11-30T03:19:00.967Z,16.03
2022-11-30T03:21:22.336Z,18.10
2022-11-30T03:23:43.659Z,18.47
2022-11-30T03:26:05.729Z,17.27
2022-11-30T03:28:26.919Z,17.03
2022-11-30T03:30:49.591Z,19.13
2022-11-30T03:33:10.761Z,17.43
2022-11-30T03:35:33.486Z,19.83
2022-11-30T03:37:54.427Z,19.97
2022-11-30T03:40:15.822Z,18.73
2022-11-30T03:42:36.785Z,21.20
2022-11-30T03:44:58.045Z,22.37
2022-11-30T03:47:19.348Z,21.87
2022-11-30T03:49:40.879Z,26.50
2022-11-30T03:52:04.214Z,20.07
2022-11-30T03:54:25.568Z,19.87
2022-11-30T03:56:46.800Z,18.47
2022-11-30T03:59:08.055Z,21.03
2022-11-30T04:01:29.546Z,21.03
2022-11-30T04:03:51.195Z,17.27
2022-11-30T04:06:13.115Z,16.03
2022-11-30T04:08:35.349Z,17.30
2022-11-30T04:10:57.303Z,18.23
2022-11-30T04:13:18.499Z,18.57
2022-11-30T04:15:39.707Z,17.47
2022-11-30T04:18:00.799Z,19.00
2022-11-30T04:20:22.074Z,19.97
2022-11-30T04:22:43.234Z,18.47
2022-11-30T04:25:06.143Z,16.80
2022-11-30T04:27:29.199Z,18.00
2022-11-30T04:29:50.146Z,17.27
2022-11-30T04:32:11.260Z,16.40
2022-11-30T04:34:32.634Z,19.53
2022-11-30T04:36:58.845Z,18.23
2022-11-30T04:39:21.533Z,15.87
2022-11-30T04:41:44.058Z,17.00
2022-11-30T04:44:05.522Z,16.60
2022-11-30T04:46:26.902Z,14.40
2022-11-30T04:48:48.075Z,17.37
2022-11-30T04:51:09.885Z,14.67
2022-11-30T04:53:31.185Z,14.23
2022-11-30T04:55:52.526Z,16.83
2022-11-30T04:58:15.267Z,14.20
2022-11-30T05:00:37.115Z,14.33
2022-11-30T05:02:58.301Z,14.80
2022-11-30T05:05:19.636Z,16.27
2022-11-30T05:07:41.605Z,14.03
2022-11-30T05:10:02.690Z,12.90
2022-11-30T05:12:23.890Z,13.57
2022-11-30T05:14:46.650Z,13.37
2022-11-30T05:17:08.205Z,13.37
2022-11-30T05:19:29.328Z,15.63
2022-11-30T05:21:50.703Z,13.50
2022-11-30T05:24:11.967Z,17.00
2022-11-30T05:26:33.382Z,13.60
2022-11-30T05:28:54.536Z,15.70
2022-11-30T05:31:17.539Z,15.83
2022-11-30T05:33:38.458Z,22.97
2022-11-30T05:35:59.982Z,18.03
2022-11-30T05:38:21.171Z,18.40
2022-11-30T05:40:42.306Z,19.20
2022-11-30T05:43:04.733Z,21.10
2022-11-30T05:45:25.744Z,24.03
2022-11-30T05:47:48.354Z,24.57
2022-11-30T05:50:10.105Z,24.77
2022-11-30T05:52:31.354Z,24.67
2022-11-30T05:54:52.526Z,32.33
2022-11-30T05:57:13.727Z,32.93
2022-11-30T05:59:34.832Z,37.87
2022-11-30T06:01:56.292Z,31.80
2022-11-30T06:04:18.795Z,33.67
2022-11-30T06:06:40.139Z,41.60
2022-11-30T06:09:01.319Z,37.43
2022-11-30T06:11:22.623Z,39.30
2022-11-30T06:13:43.934Z,38.13
2022-11-30T06:16:06.303Z,37.60
2022-11-30T06:18:27.666Z,37.40
2022-11-30T06:20:50.267Z,38.00
2022-11-30T06:23:11.582Z,32.77
2022-11-30T06:25:33.054Z,35.43
2022-11-30T06:27:54.460Z,37.73
2022-11-30T06:30:16.112Z,41.27
2022-11-30T06:32:37.019Z,38.43
2022-11-30T06:34:58.116Z,42.13
2022-11-30T06:37:20.656Z,40.93
2022-11-30T06:42:23.165Z,40.70
2022-11-30T06:44:44.454Z,40.80
2022-11-30T06:47:05.676Z,39.40
2022-11-30T06:49:26.979Z,40.27
2022-11-30T06:51:48.265Z,41.63
2022-11-30T06:54:10.964Z,41.67
2022-11-30T06:56:32.281Z,40.10
2022-11-30T06:58:54.371Z,42.37
2022-11-30T07:01:16.263Z,39.43
2022-11-30T07:03:38.001Z,40.83
2022-11-30T07:05:59.618Z,41.03
2022-11-30T07:08:20.723Z,39.37
2022-11-30T07:10:44.000Z,40.33
2022-11-30T07:13:05.193Z,43.83
2022-11-30T07:15:26.502Z,44.03
2022-11-30T07:17:47.975Z,39.47
2022-11-30T07:20:09.677Z,41.33
2022-11-30T07:22:30.738Z,39.90
2022-11-30T07:25:09.491Z,40.67
2022-11-30T07:27:32.126Z,40.73
2022-11-30T07:29:53.250Z,40.00
2022-11-30T07:32:14.380Z,42.47
2022-11-30T07:34:35.642Z,39.83
2022-11-30T07:36:56.787Z,39.20
2022-11-30T07:39:17.946Z,36.60
2022-11-30T07:41:39.195Z,38.50
2022-11-30T07:44:01.753Z,43.67
2022-11-30T07:46:23.037Z,38.40
2022-11-30T07:48:44.999Z,34.00
2022-11-30T07:51:06.771Z,36.43
2022-11-30T07:53:27.712Z,35.50
2022-11-30T07:55:55.480Z,32.50
2022-11-30T07:58:17.927Z,33.37
2022-11-30T08:00:40.535Z,37.27
2022-11-30T08:03:01.900Z,35.10
2022-11-30T08:05:23.604Z,36.10
2022-11-30T08:07:45.779Z,33.33
2022-11-30T08:10:07.863Z,34.13
2022-11-30T08:12:29.123Z,38.00
2022-11-30T08:15:18.688Z,36.43
2022-11-30T08:17:32.706Z,37.53
2022-11-30T08:19:53.815Z,36.83
2022-11-30T08:22:15.209Z,37.57
2022-11-30T08:24:36.369Z,38.37
2022-11-30T08:26:57.581Z,37.47
2022-11-30T08:29:19.004Z,37.40
2022-11-30T08:31:40.152Z,41.40
2022-11-30T08:34:04.090Z,37.47
2022-11-30T08:36:25.670Z,40.37
2022-11-30T08:38:47.587Z,39.00
2022-11-30T08:41:09.514Z,36.13
2022-11-30T08:43:30.393Z,37.77
2022-11-30T08:45:54.539Z,35.67
2022-11-30T08:48:18.227Z,35.50
2022-11-30T08:50:40.837Z,35.70
2022-11-30T08:53:06.400Z,33.93
2022-11-30T08:55:28.120Z,32.30
2022-11-30T08:57:49.499Z,35.63
2022-11-30T09:00:11.517Z,34.07
2022-11-30T09:02:32.480Z,34.20
2022-11-30T09:04:53.951Z,34.00
2022-11-30T09:07:16.194Z,33.17
2022-11-30T09:09:37.769Z,31.43
2022-11-30T09:11:59.036Z,34.73
2022-11-30T09:14:20.201Z,32.33
2022-11-30T09:16:41.409Z,34.03
2022-11-30T09:19:02.760Z,31.60
2022-11-30T09:21:25.099Z,32.27
2022-11-30T09:23:47.624Z,32.60
2022-11-30T09:26:09.840Z,31.20
2022-11-30T09:28:31.434Z,29.97
2022-11-30T09:30:52.830Z,28.83
2022-11-30T09:33:14.107Z,28.00
2022-11-30T09:35:35.442Z,27.80
2022-11-30T09:37:56.717Z,27.97
2022-11-30T09:40:20.510Z,29.23
2022-11-30T09:42:47.353Z,27.37
2022-11-30T09:45:12.900Z,26.13
2022-11-30T09:47:40.734Z,28.03
2022-11-30T09:50:04.077Z,26.67
2022-11-30T09:52:27.990Z,27.83
2022-11-30T09:54:49.609Z,26.57
2022-11-30T09:57:19.760Z,26.73
2022-11-30T09:59:44.290Z,27.87
2022-11-30T10:02:15.188Z,26.53
2022-11-30T10:04:36.715Z,26.17
2022-11-30T10:07:04.034Z,26.00
2022-11-30T10:09:28.165Z,24.77
2022-11-30T10:11:53.471Z,26.70
2022-11-30T10:14:21.620Z,26.97
2022-11-30T10:16:49.744Z,26.30
2022-11-30T10:19:16.052Z,26.20
2022-11-30T10:21:43.359Z,24.70
2022-11-30T10:24:16.187Z,24.30
2022-11-30T10:26:38.650Z,24.10
2022-11-30T10:29:02.606Z,24.83
2022-11-30T10:31:29.461Z,23.73
2022-11-30T10:33:51.346Z,24.07
2022-11-30T10:36:14.339Z,24.27
2022-11-30T10:38:37.912Z,25.83
2022-11-30T10:41:03.526Z,21.70
2022-11-30T10:43:28.280Z,23.07
2022-11-30T10:45:50.309Z,22.07
2022-11-30T10:48:15.321Z,26.30
2022-11-30T10:50:37.919Z,24.83
2022-11-30T10:53:00.265Z,21.27
2022-11-30T10:55:23.268Z,22.20
2022-11-30T10:57:44.454Z,22.03
2022-11-30T11:00:06.788Z,22.03
2022-11-30T11:02:39.057Z,20.57
2022-11-30T11:05:10.305Z,20.03
2022-11-30T11:07:32.754Z,23.03
2022-11-30T11:09:53.958Z,21.53
2022-11-30T11:12:16.679Z,23.40
2022-11-30T11:14:39.011Z,21.10
2022-11-30T11:17:01.863Z,22.67
2022-11-30T11:19:24.361Z,20.23
2022-11-30T11:21:49.609Z,21.20
2022-11-30T11:24:10.991Z,20.40
2022-11-30T11:26:32.053Z,20.13
2022-11-30T11:28:54.977Z,20.03
2022-11-30T11:31:17.485Z,21.50
2022-11-30T11:33:50.257Z,18.60
2022-11-30T11:36:15.791Z,17.97
2022-11-30T11:38:42.715Z,18.87
2022-11-30T11:41:05.392Z,18.57
2022-11-30T11:43:27.800Z,18.70
2022-11-30T11:45:52.044Z,17.00
2022-11-30T11:48:29.228Z,19.23
2022-11-30T11:51:06.718Z,17.37
2022-11-30T11:53:51.703Z,16.67
2022-11-30T11:56:19.139Z,17.00
2022-11-30T11:58:43.026Z,17.17
2022-11-30T12:01:38.254Z,17.60
2022-11-30T12:03:55.873Z,16.10
2022-11-30T12:06:19.649Z,15.67
2022-11-30T12:08:46.217Z,17.37
2022-11-30T12:11:09.801Z,16.00
2022-11-30T12:13:34.093Z,17.47
2022-11-30T12:16:00.963Z,17.93
2022-11-30T12:18:24.656Z,16.50
2022-11-30T12:20:53.257Z,16.60
2022-11-30T12:23:22.372Z,18.33
2022-11-30T12:25:48.414Z,17.27
2022-11-30T12:28:17.092Z,19.53
2022-11-30T12:30:43.585Z,17.13
2022-11-30T12:33:17.861Z,17.93
2022-11-30T12:35:44.850Z,17.53
2022-11-30T12:38:11.225Z,17.27
2022-11-30T12:40:36.757Z,17.23
2022-11-30T12:43:04.172Z,18.57
2022-11-30T12:45:28.761Z,20.33
2022-11-30T12:47:55.130Z,20.07
2022-11-30T12:50:23.882Z,18.03
2022-11-30T12:52:48.506Z,18.60
2022-11-30T12:55:14.714Z,17.70
2022-11-30T12:57:37.832Z,17.53
2022-11-30T13:00:04.647Z,16.77
2022-11-30T13:02:43.135Z,17.47
2022-11-30T13:05:07.537Z,16.40
2022-11-30T13:07:30.552Z,17.70
2022-11-30T13:09:53.692Z,16.67
2022-11-30T13:12:26.815Z,15.87
2022-11-30T13:14:48.074Z,18.07
2022-11-30T13:17:14.726Z,15.43
2022-11-30T13:19:51.418Z,16.23
2022-11-30T13:22:16.685Z,15.27
2022-11-30T13:24:41.070Z,14.93
2022-11-30T13:27:05.578Z,14.83
2022-11-30T13:29:45.614Z,16.03
2022-11-30T13:32:22.491Z,16.03
2022-11-30T13:34:52.807Z,16.03
2022-11-30T13:37:14.891Z,15.83
2022-11-30T13:39:45.646Z,14.03
2022-11-30T13:42:16.051Z,15.03
2022-11-30T13:44:38.678Z,17.30
2022-11-30T13:47:00.495Z,15.17
2022-11-30T13:49:22.656Z,14.93
2022-11-30T13:51:45.171Z,15.17
2022-11-30T13:54:27.836Z,15.40
2022-11-30T13:56:49.587Z,17.23
2022-11-30T13:59:32.562Z,15.17
2022-11-30T14:02:14.027Z,15.43
2022-11-30T14:04:35.145Z,16.73
2022-11-30T14:06:59.388Z,22.23
2022-11-30T14:09:35.160Z,18.17
2022-11-30T14:11:56.291Z,14.53
2022-11-30T14:14:32.227Z,16.07
2022-11-30T14:16:53.786Z,14.27
2022-11-30T14:19:14.839Z,12.30
2022-11-30T14:21:36.763Z,16.07
2022-11-30T14:24:00.855Z,17.97
2022-11-30T14:26:24.603Z,20.67
2022-11-30T14:28:48.037Z,66.63
2022-11-30T14:31:11.018Z,22.63
2022-11-30T14:33:39.267Z,20.50
2022-11-30T14:36:01.234Z,29.13
2022-11-30T14:38:25.131Z,26.93
2022-11-30T14:40:52.581Z,19.87
2022-11-30T14:43:17.050Z,21.73
2022-11-30T14:45:38.154Z,30.57
2022-11-30T14:48:05.627Z,23.70
2022-11-30T14:50:27.265Z,22.60
2022-11-30T14:52:53.372Z,29.17
2022-11-30T14:55:18.612Z,23.13
2022-11-30T14:57:44.868Z,19.33
2022-11-30T15:00:06.961Z,19.83
2022-11-30T15:02:30.694Z,17.63
2022-11-30T15:04:53.282Z,20.33
2022-11-30T15:07:14.544Z,19.67
2022-11-30T15:09:35.833Z,20.67
2022-11-30T15:11:57.766Z,18.43
2022-11-30T15:14:20.686Z,20.20
2022-11-30T15:16:47.939Z,17.80
2022-11-30T15:19:19.224Z,19.03
2022-11-30T15:21:46.045Z,18.80
2022-11-30T15:24:07.448Z,18.93
2022-11-30T15:26:30.661Z,17.93
2022-11-30T15:28:55.116Z,17.83
2022-11-30T15:31:17.932Z,15.07
2022-11-30T15:33:42.326Z,15.57
2022-11-30T15:36:32.314Z,16.70
2022-11-30T15:38:50.296Z,19.70
2022-11-30T15:41:18.179Z,18.03
2022-11-30T15:43:40.462Z,19.73
2022-11-30T15:46:01.475Z,18.97
2022-11-30T15:48:29.369Z,19.03
2022-11-30T15:50:50.402Z,12.67
2022-11-30T15:53:28.875Z,14.43
2022-11-30T15:55:54.096Z,16.53
2022-11-30T15:58:25.579Z,12.10
2022-11-30T16:00:58.830Z,13.30
2022-11-30T16:03:19.749Z,10.07
2022-11-30T16:05:54.405Z,9.83
2022-11-30T16:08:15.955Z,8.40
2022-11-30T16:10:37.793Z,10.60
2022-11-30T16:12:59.144Z,9.20
2022-11-30T16:15:21.173Z,7.67
2022-11-30T16:17:42.392Z,7.07
2022-11-30T16:20:04.372Z,7.73
2022-11-30T16:22:26.624Z,8.47
2022-11-30T16:24:47.869Z,7.70
2022-11-30T16:27:13.943Z,7.07
2022-11-30T16:29:34.894Z,7.07
2022-11-30T16:31:56.317Z,6.10
2022-11-30T16:34:17.543Z,6.33
2022-11-30T16:36:39.324Z,5.80
2022-11-30T16:39:01.934Z,6.17
2022-11-30T16:41:23.919Z,5.40
2022-11-30T16:43:45.562Z,5.47
2022-11-30T16:46:06.591Z,5.20
2022-11-30T16:48:28.375Z,5.20
2022-11-30T16:50:49.474Z,5.67
2022-11-30T16:53:13.085Z,5.40
2022-11-30T16:55:37.680Z,5.67
2022-11-30T16:57:59.308Z,5.73
2022-11-30T17:00:21.007Z,5.70
2022-11-30T17:02:44.492Z,7.10
2022-11-30T17:05:06.278Z,6.23
2022-11-30T17:07:27.288Z,7.30
2022-11-30T17:09:48.554Z,8.97
2022-11-30T17:12:11.176Z,8.40
2022-11-30T17:14:32.305Z,8.53
2022-11-30T17:16:53.576Z,9.90
2022-11-30T17:19:14.883Z,9.53
2022-11-30T17:21:36.987Z,8.40
2022-11-30T17:23:58.560Z,12.27
2022-11-30T17:26:19.732Z,8.80
2022-11-30T17:28:42.587Z,9.43
2022-11-30T17:31:04.023Z,9.20
2022-11-30T17:33:25.243Z,11.73
2022-11-30T17:35:46.591Z,9.80
2022-11-30T17:38:07.983Z,9.37
2022-11-30T17:40:29.169Z,9.10
2022-11-30T17:42:50.406Z,11.97
2022-11-30T17:45:13.320Z,9.83
2022-11-30T17:47:34.167Z,11.40
2022-11-30T17:49:56.608Z,16.10
2022-11-30T17:52:17.993Z,10.30
2022-11-30T17:54:39.150Z,10.50
2022-11-30T17:57:00.498Z,11.60
2022-11-30T17:59:22.161Z,13.50
2022-11-30T18:01:44.704Z,12.37
2022-11-30T18:04:06.131Z,13.93
2022-11-30T18:06:27.248Z,12.90
2022-11-30T18:08:48.583Z,14.40
2022-11-30T18:11:10.888Z,14.93
2022-11-30T18:13:32.280Z,12.07
2022-11-30T18:15:53.527Z,12.20
2022-11-30T18:18:16.120Z,15.20
2022-11-30T18:20:37.408Z,13.83
2022-11-30T18:22:58.615Z,14.17
2022-11-30T18:25:19.809Z,13.37
2022-11-30T18:27:41.126Z,13.17
2022-11-30T18:30:07.343Z,12.70
2022-11-30T18:32:31.880Z,14.97
2022-11-30T18:34:54.522Z,12.57
2022-11-30T18:37:16.035Z,14.67
2022-11-30T18:39:36.913Z,13.17
2022-11-30T18:41:58.167Z,15.20
2022-11-30T18:44:19.658Z,14.07
2022-11-30T18:46:40.653Z,14.60
2022-11-30T18:49:02.113Z,17.50
2022-11-30T18:51:25.314Z,16.53
2022-11-30T18:53:46.996Z,17.03
2022-11-30T18:56:08.671Z,16.37
2022-11-30T18:58:29.694Z,16.10
2022-11-30T19:00:50.889Z,17.40
2022-11-30T19:03:12.535Z,17.87
2022-11-30T19:05:34.868Z,17.47
2022-11-30T19:07:57.368Z,18.67
2022-11-30T19:10:18.517Z,15.37
2022-11-30T19:12:41.395Z,19.07
2022-11-30T19:15:04.587Z,18.37
2022-11-30T19:17:25.825Z,16.77
2022-11-30T19:19:47.234Z,15.97
2022-11-30T19:22:08.450Z,17.23
2022-11-30T19:24:31.257Z,16.93
2022-11-30T19:26:52.714Z,18.50
2022-11-30T19:29:14.115Z,20.33
2022-11-30T19:31:35.466Z,19.73
2022-11-30T19:33:57.270Z,18.57
2022-11-30T19:36:19.873Z,17.40
2022-11-30T19:38:41.020Z,18.07
2022-11-30T19:41:07.071Z,17.27
2022-11-30T19:43:28.227Z,17.37
2022-11-30T19:45:49.516Z,18.47
2022-11-30T19:48:10.364Z,15.57
2022-11-30T19:50:31.470Z,16.70
2022-11-30T19:52:52.839Z,17.27
2022-11-30T19:55:14.190Z,17.20
2022-11-30T19:57:37.221Z,15.07
2022-11-30T19:59:58.681Z,14.87
2022-11-30T20:02:20.133Z,15.17
2022-11-30T20:04:41.297Z,15.57
2022-11-30T20:07:02.633Z,15.23
2022-11-30T20:09:23.997Z,14.93
2022-11-30T20:11:45.330Z,15.97
2022-11-30T20:14:08.047Z,17.47
2022-11-30T20:16:29.676Z,15.47
2022-11-30T20:18:52.620Z,16.03
2022-11-30T20:21:14.610Z,14.77
2022-11-30T20:23:35.835Z,16.50
2022-11-30T20:25:57.016Z,17.23
2022-11-30T20:28:18.497Z,15.80
2022-11-30T20:30:41.188Z,15.97
2022-11-30T20:33:02.377Z,16.23
2022-11-30T20:35:23.777Z,17.73
2022-11-30T20:37:45.017Z,18.23
2022-11-30T20:40:07.119Z,18.00
2022-11-30T20:42:28.221Z,17.77
2022-11-30T20:44:49.801Z,18.10
2022-11-30T20:47:12.354Z,20.80
2022-11-30T20:49:33.632Z,16.57
2022-11-30T20:51:54.947Z,17.67
2022-11-30T20:54:16.339Z,16.27
2022-11-30T20:56:38.105Z,18.00
2022-11-30T20:59:01.659Z,16.13
2022-11-30T21:01:23.752Z,20.50
2022-11-30T21:03:47.018Z,18.90
2022-11-30T21:06:08.406Z,18.43
2022-11-30T21:08:31.352Z,19.13
2022-11-30T21:10:52.799Z,21.17
2022-11-30T21:13:15.211Z,18.53
2022-11-30T21:15:36.581Z,20.13
2022-11-30T21:17:57.839Z,18.10
2022-11-30T21:20:20.667Z,20.00
2022-11-30T21:22:41.936Z,18.10
2022-11-30T21:25:03.127Z,18.77
2022-11-30T21:27:24.446Z,18.80
2022-11-30T21:29:45.897Z,16.60
2022-11-30T21:32:07.070Z,20.60
2022-11-30T21:34:28.496Z,17.90
2022-11-30T21:36:52.090Z,19.67
2022-11-30T21:39:14.374Z,19.03
2022-11-30T21:41:36.082Z,20.83
2022-11-30T21:43:57.626Z,18.90
2022-11-30T21:46:19.985Z,18.97
2022-11-30T21:48:41.947Z,17.73
2022-11-30T21:51:04.553Z,19.40
2022-11-30T21:53:27.337Z,21.40
2022-11-30T21:55:51.563Z,21.50
2022-11-30T21:58:16.519Z,19.77
2022-11-30T22:00:37.755Z,21.63
2022-11-30T22:02:59.151Z,19.67
2022-11-30T22:05:20.188Z,21.10
2022-11-30T22:07:41.685Z,21.00
2022-11-30T22:10:04.345Z,20.70
2022-11-30T22:12:25.411Z,21.87
2022-11-30T22:14:46.412Z,19.70
2022-11-30T22:17:07.662Z,18.77
2022-11-30T22:19:29.041Z,20.93
2022-11-30T22:21:50.608Z,18.60
2022-11-30T22:24:12.693Z,19.73
2022-11-30T22:26:36.248Z,20.27
2022-11-30T22:28:58.489Z,20.73
2022-11-30T22:31:21.371Z,20.27
2022-11-30T22:33:43.170Z,24.63
2022-11-30T22:36:04.747Z,24.03
2022-11-30T22:38:25.956Z,19.43
2022-11-30T22:40:47.224Z,21.40
2022-11-30T22:43:09.836Z,22.07
2022-11-30T22:45:31.242Z,21.13
2022-11-30T22:47:52.480Z,19.53
2022-11-30T22:50:13.997Z,21.23
2022-11-30T22:53:01.598Z,20.20
2022-11-30T22:55:16.309Z,21.17
2022-11-30T22:57:37.972Z,21.83
2022-11-30T23:00:00.608Z,21.03
2022-11-30T23:02:21.822Z,20.80
2022-11-30T23:04:43.142Z,23.30
2022-11-30T23:07:04.474Z,22.77
2022-11-30T23:09:25.734Z,21.70
2022-11-30T23:11:47.349Z,23.07
2022-11-30T23:14:09.594Z,22.70
2022-11-30T23:16:31.975Z,25.80
2022-11-30T23:18:54.565Z,24.30
2022-11-30T23:21:16.718Z,23.07
2022-11-30T23:23:37.953Z,21.63
2022-11-30T23:26:08.462Z,23.60
2022-11-30T23:28:29.517Z,21.03
2022-11-30T23:30:50.762Z,24.23
2022-11-30T23:33:13.509Z,26.67
2022-11-30T23:35:34.485Z,25.23
2022-11-30T23:37:55.752Z,26.70
2022-11-30T23:40:17.243Z,23.63
2022-11-30T23:42:38.604Z,25.23
2022-11-30T23:45:00.860Z,21.57
2022-11-30T23:47:21.945Z,26.20
2022-11-30T23:49:44.519Z,26.33
2022-11-30T23:52:05.970Z,22.77
2022-11-30T23:54:27.099Z,24.87
2022-11-30T23:56:48.551Z,23.17
2022-11-30T23:59:09.579Z,26.83
